createdAt,value
2018-05-12T00:00:09.771Z,70.06
2018-05-12T00:02:38.042Z,70.30
2018-05-12T00:05:06.323Z,70.25
2018-05-12T00:07:34.594Z,70.16
2018-05-12T00:10:03.241Z,70.57
2018-05-12T00:12:31.527Z,70.45
2018-05-12T00:14:59.885Z,70.36
2018-05-12T00:17:28.119Z,69.87
2018-05-12T00:19:56.417Z,70.13
2018-05-12T00:22:24.691Z,69.95
2018-05-12T00:24:53.050Z,70.22
2018-05-12T00:27:21.484Z,69.76
2018-05-12T00:29:49.767Z,69.54
2018-05-12T00:32:18.030Z,69.93
2018-05-12T00:34:46.367Z,69.85
2018-05-12T00:37:14.734Z,69.91
2018-05-12T00:39:43.024Z,70.13
2018-05-12T00:42:11.285Z,69.93
2018-05-12T00:44:39.554Z,69.89
2018-05-12T00:47:07.842Z,69.66
2018-05-12T00:49:36.129Z,69.86
2018-05-12T00:52:05.206Z,70.40
2018-05-12T00:54:33.488Z,70.38
2018-05-12T00:57:01.770Z,70.38
2018-05-12T00:59:30.476Z,70.38
2018-05-12T01:01:58.873Z,70.62
2018-05-12T01:04:27.130Z,70.96
2018-05-12T01:06:55.389Z,71.13
2018-05-12T01:09:23.730Z,71.03
2018-05-12T01:11:52.040Z,70.73
2018-05-12T01:14:20.333Z,70.54
2018-05-12T01:16:49.230Z,70.41
2018-05-12T01:19:17.490Z,70.56
2018-05-12T01:21:45.779Z,70.51
2018-05-12T01:24:14.138Z,70.77
2018-05-12T01:26:42.471Z,70.78
2018-05-12T01:29:10.722Z,71.50
2018-05-12T01:31:39.043Z,71.45
2018-05-12T01:34:07.338Z,71.34
2018-05-12T01:36:35.944Z,71.33
2018-05-12T01:39:04.219Z,71.25
2018-05-12T01:41:32.527Z,71.40
2018-05-12T01:44:00.821Z,71.34
2018-05-12T01:46:29.105Z,71.68
2018-05-12T01:48:57.389Z,71.38
2018-05-12T01:51:25.665Z,71.59
2018-05-12T01:53:53.956Z,71.78
2018-05-12T01:56:22.241Z,72.38
2018-05-12T01:58:51.245Z,73.16
2018-05-12T02:01:20.282Z,72.48
2018-05-12T02:03:48.577Z,72.42
2018-05-12T02:06:16.850Z,72.00
2018-05-12T02:08:45.146Z,71.88
2018-05-12T02:11:13.411Z,71.69
2018-05-12T02:13:41.709Z,71.53
2018-05-12T02:16:10.013Z,71.65
2018-05-12T02:18:38.296Z,71.75
2018-05-12T02:21:06.586Z,71.71
2018-05-12T02:23:34.857Z,71.79
2018-05-12T02:26:03.143Z,72.27
2018-05-12T02:28:31.454Z,72.11
2018-05-12T02:30:59.718Z,72.02
2018-05-12T02:33:28.039Z,71.94
2018-05-12T02:35:56.330Z,71.64
2018-05-12T02:38:24.597Z,71.87
2018-05-12T02:40:52.899Z,71.47
2018-05-12T02:43:21.193Z,71.23
2018-05-12T02:45:49.530Z,71.29
2018-05-12T02:48:17.761Z,71.13
2018-05-12T02:50:46.049Z,71.15
2018-05-12T02:53:14.516Z,71.26
2018-05-12T02:55:42.778Z,71.35
2018-05-12T02:58:11.088Z,71.67
2018-05-12T03:00:39.394Z,71.63
2018-05-12T03:03:07.680Z,72.05
2018-05-12T03:05:35.958Z,72.07
2018-05-12T03:08:04.258Z,72.26
2018-05-12T03:10:32.534Z,72.37
2018-05-12T03:13:00.810Z,72.06
2018-05-12T03:15:29.104Z,72.67
2018-05-12T03:17:57.401Z,73.47
2018-05-12T03:20:25.658Z,73.11
2018-05-12T03:22:53.964Z,72.50
2018-05-12T03:25:22.454Z,72.32
2018-05-12T03:27:50.750Z,72.76
2018-05-12T03:30:19.093Z,72.84
2018-05-12T03:32:47.378Z,72.72
2018-05-12T03:35:15.694Z,72.58
2018-05-12T03:37:43.974Z,72.57
2018-05-12T03:40:12.237Z,72.73
2018-05-12T03:42:40.524Z,71.75
2018-05-12T03:45:08.792Z,72.32
2018-05-12T03:47:37.078Z,72.07
2018-05-12T03:50:06.164Z,71.56
2018-05-12T03:52:34.421Z,71.94
2018-05-12T03:55:02.710Z,71.54
2018-05-12T03:57:30.973Z,71.99
2018-05-12T03:59:59.306Z,72.08
2018-05-12T04:02:27.529Z,72.26
2018-05-12T04:05:07.661Z,72.26
2018-05-12T04:07:47.760Z,72.54
2018-05-12T04:10:23.181Z,72.66
2018-05-12T04:12:51.416Z,72.58
2018-05-12T04:15:19.693Z,72.53
2018-05-12T04:17:47.991Z,72.62
2018-05-12T04:20:16.335Z,72.61
2018-05-12T04:22:44.772Z,72.50
2018-05-12T04:25:13.106Z,72.72
2018-05-12T04:27:41.375Z,72.76
2018-05-12T04:30:09.699Z,72.58
2018-05-12T04:32:38.796Z,72.33
2018-05-12T04:35:07.073Z,71.95
2018-05-12T04:37:35.402Z,71.27
2018-05-12T04:40:03.688Z,71.47
2018-05-12T04:42:32.782Z,71.47
2018-05-12T04:45:01.091Z,71.98
2018-05-12T04:47:29.369Z,72.00
2018-05-12T04:49:57.656Z,71.78
2018-05-12T04:52:26.304Z,71.59
2018-05-12T04:54:54.619Z,71.59
2018-05-12T04:57:22.868Z,71.70
2018-05-12T04:59:51.201Z,71.39
2018-05-12T05:02:19.522Z,71.31
2018-05-12T05:04:48.714Z,71.31
2018-05-12T05:07:17.037Z,71.70
2018-05-12T05:09:45.275Z,71.53
2018-05-12T05:12:13.553Z,71.37
2018-05-12T05:14:41.818Z,71.45
2018-05-12T05:17:10.946Z,71.46
2018-05-12T05:19:39.302Z,71.67
2018-05-12T05:22:07.574Z,71.80
2018-05-12T05:24:36.516Z,71.51
2018-05-12T05:27:04.851Z,70.95
2018-05-12T05:29:33.162Z,70.65
2018-05-12T05:32:01.443Z,70.89
2018-05-12T05:34:29.762Z,70.98
2018-05-12T05:36:58.012Z,71.47
2018-05-12T05:39:27.357Z,72.17
2018-05-12T05:41:55.618Z,72.23
2018-05-12T05:44:23.935Z,71.94
2018-05-12T05:46:52.212Z,71.50
2018-05-12T05:49:20.490Z,71.27
2018-05-12T05:51:49.099Z,71.14
2018-05-12T05:54:17.376Z,70.84
2018-05-12T05:56:45.644Z,70.96
2018-05-12T05:59:13.951Z,70.98
2018-05-12T06:01:42.219Z,70.95
2018-05-12T06:04:10.528Z,70.39
2018-05-12T06:06:38.837Z,70.11
2018-05-12T06:09:07.130Z,70.02
2018-05-12T06:11:35.395Z,70.23
2018-05-12T06:14:03.682Z,70.47
2018-05-12T06:16:31.962Z,70.53
2018-05-12T06:19:00.258Z,70.83
2018-05-12T06:21:28.536Z,70.76
2018-05-12T06:23:56.830Z,70.46
2018-05-12T06:26:25.128Z,70.49
2018-05-12T06:28:53.426Z,70.66
2018-05-12T06:31:21.790Z,70.55
2018-05-12T06:33:50.109Z,70.47
2018-05-12T06:36:18.422Z,70.30
2018-05-12T06:38:46.683Z,70.02
2018-05-12T06:41:14.983Z,70.05
2018-05-12T06:43:43.253Z,69.70
2018-05-12T06:46:11.558Z,69.38
2018-05-12T06:48:40.883Z,69.15
2018-05-12T06:51:09.830Z,68.84
2018-05-12T06:53:38.131Z,68.59
2018-05-12T06:56:06.424Z,68.00
2018-05-12T06:58:34.707Z,67.73
2018-05-12T07:01:02.998Z,67.46
2018-05-12T07:03:31.278Z,67.37
2018-05-12T07:05:59.621Z,67.17
2018-05-12T07:08:27.938Z,66.81
2018-05-12T07:10:56.247Z,66.62
2018-05-12T07:13:24.522Z,66.31
2018-05-12T07:15:52.870Z,66.20
2018-05-12T07:18:21.142Z,66.04
2018-05-12T07:20:49.461Z,65.65
2018-05-12T07:23:17.822Z,65.39
2018-05-12T07:25:46.114Z,65.21
2018-05-12T07:28:14.432Z,64.67
2018-05-12T07:30:42.713Z,64.49
2018-05-12T07:33:11.008Z,64.44
2018-05-12T07:35:39.258Z,64.45
2018-05-12T07:38:07.582Z,64.40
2018-05-12T07:40:35.873Z,64.07
2018-05-12T07:43:04.188Z,63.53
2018-05-12T07:45:32.526Z,63.34
2018-05-12T07:48:00.851Z,63.19
2018-05-12T07:50:29.131Z,63.09
2018-05-12T07:52:57.427Z,62.59
2018-05-12T07:55:25.710Z,62.28
2018-05-12T07:57:54.000Z,62.35
2018-05-12T08:00:22.376Z,62.11
2018-05-12T08:02:50.673Z,62.14
2018-05-12T08:05:18.990Z,61.63
2018-05-12T08:07:47.269Z,61.03
2018-05-12T08:10:15.566Z,60.31
2018-05-12T08:12:43.893Z,59.35
2018-05-12T08:15:12.528Z,58.22
2018-05-12T08:17:40.797Z,57.96
2018-05-12T08:20:09.616Z,57.83
2018-05-12T08:22:37.914Z,58.06
2018-05-12T08:25:06.255Z,58.30
2018-05-12T08:27:34.610Z,57.98
2018-05-12T08:30:02.883Z,57.52
2018-05-12T08:32:31.171Z,57.14
2018-05-12T08:34:59.487Z,56.98
2018-05-12T08:37:27.782Z,56.56
2018-05-12T08:39:56.086Z,56.64
2018-05-12T08:42:24.453Z,55.91
2018-05-12T08:44:52.699Z,54.99
2018-05-12T08:47:21.006Z,55.14
2018-05-12T08:49:49.290Z,55.43
2018-05-12T08:52:17.613Z,54.97
2018-05-12T08:54:45.913Z,55.09
2018-05-12T08:57:14.187Z,55.05
2018-05-12T08:59:42.504Z,55.39
2018-05-12T09:02:10.767Z,54.72
2018-05-12T09:04:39.058Z,54.62
2018-05-12T09:07:07.384Z,54.22
2018-05-12T09:09:35.706Z,54.21
2018-05-12T09:12:04.037Z,54.33
2018-05-12T09:14:32.366Z,53.43
2018-05-12T09:17:00.689Z,54.64
2018-05-12T09:19:28.976Z,54.49
2018-05-12T09:21:57.343Z,55.34
2018-05-12T09:24:25.653Z,55.21
2018-05-12T09:26:53.969Z,55.21
2018-05-12T09:29:22.259Z,54.79
2018-05-12T09:31:50.531Z,53.82
2018-05-12T09:34:18.887Z,53.70
2018-05-12T09:36:48.349Z,51.98
2018-05-12T09:39:16.669Z,52.22
2018-05-12T09:41:44.933Z,51.96
2018-05-12T09:44:13.295Z,51.11
2018-05-12T09:46:41.557Z,49.41
2018-05-12T09:49:09.927Z,48.62
2018-05-12T09:51:38.180Z,48.29
2018-05-12T09:54:07.142Z,48.98
2018-05-12T09:56:35.383Z,49.24
2018-05-12T09:59:03.684Z,49.75
2018-05-12T10:01:31.960Z,50.41
2018-05-12T10:04:00.340Z,51.00
2018-05-12T10:06:28.610Z,50.90
2018-05-12T10:08:56.888Z,51.54
2018-05-12T10:11:25.150Z,52.08
2018-05-12T10:13:53.457Z,52.32
2018-05-12T10:16:21.776Z,51.95
2018-05-12T10:18:50.144Z,51.71
2018-05-12T10:21:18.462Z,51.30
2018-05-12T10:23:46.713Z,50.79
2018-05-12T10:26:15.046Z,50.04
2018-05-12T10:28:43.292Z,49.51
2018-05-12T10:31:11.605Z,48.78
2018-05-12T10:33:39.908Z,48.51
2018-05-12T10:36:08.172Z,47.49
2018-05-12T10:38:36.599Z,47.37
2018-05-12T10:41:05.865Z,47.51
2018-05-12T10:43:34.154Z,47.46
2018-05-12T10:46:02.449Z,47.52
2018-05-12T10:48:30.946Z,46.74
2018-05-12T10:50:59.237Z,46.86
2018-05-12T10:53:27.507Z,46.53
2018-05-12T10:55:55.805Z,46.22
2018-05-12T10:58:24.144Z,46.16
2018-05-12T11:00:52.406Z,45.78
2018-05-12T11:03:20.736Z,46.30
2018-05-12T11:05:48.990Z,46.89
2018-05-12T11:08:17.327Z,46.32
2018-05-12T11:10:45.603Z,46.53
2018-05-12T11:13:13.894Z,45.47
2018-05-12T11:15:42.147Z,45.07
2018-05-12T11:18:10.455Z,44.37
2018-05-12T11:20:38.779Z,42.88
2018-05-12T11:23:07.082Z,43.07
2018-05-12T11:25:35.489Z,42.64
2018-05-12T11:28:03.996Z,43.01
2018-05-12T11:30:32.446Z,42.45
2018-05-12T11:33:00.789Z,42.60
2018-05-12T11:35:29.337Z,42.92
2018-05-12T11:37:57.586Z,42.85
2018-05-12T11:40:25.870Z,42.77
2018-05-12T11:42:54.199Z,41.72
2018-05-12T11:45:22.476Z,40.95
2018-05-12T11:47:50.796Z,41.26
2018-05-12T11:50:19.105Z,41.51
2018-05-12T11:52:47.395Z,41.53
2018-05-12T11:55:15.707Z,41.47
2018-05-12T11:57:44.000Z,40.77
2018-05-12T12:00:12.583Z,40.69
2018-05-12T12:02:40.905Z,41.21
2018-05-12T12:05:09.222Z,40.93
2018-05-12T12:07:37.775Z,40.69
2018-05-12T12:10:06.115Z,39.75
2018-05-12T12:12:34.418Z,40.13
2018-05-12T12:15:02.778Z,40.07
2018-05-12T12:17:31.036Z,39.59
2018-05-12T12:19:59.330Z,39.89
2018-05-12T12:22:27.591Z,39.36
2018-05-12T12:24:55.942Z,39.58
2018-05-12T12:27:24.292Z,39.92
2018-05-12T12:29:54.019Z,40.71
2018-05-12T12:32:22.324Z,40.63
2018-05-12T12:34:50.660Z,39.15
2018-05-12T12:37:18.915Z,39.24
2018-05-12T12:39:47.895Z,38.64
2018-05-12T12:42:16.182Z,37.82
2018-05-12T12:44:44.566Z,38.09
2018-05-12T12:47:12.805Z,37.28
2018-05-12T12:49:41.083Z,37.18
2018-05-12T12:52:09.453Z,38.04
2018-05-12T12:54:38.211Z,37.71
2018-05-12T12:57:06.509Z,37.55
2018-05-12T12:59:34.801Z,37.97
2018-05-12T13:02:03.118Z,38.00
2018-05-12T13:04:31.383Z,38.43
2018-05-12T13:06:59.664Z,38.66
2018-05-12T13:09:27.996Z,38.88
2018-05-12T13:11:56.379Z,38.17
2018-05-12T13:14:24.672Z,37.75
2018-05-12T13:16:52.922Z,37.79
2018-05-12T13:19:21.187Z,37.86
2018-05-12T13:21:49.483Z,37.73
2018-05-12T13:24:17.759Z,37.91
2018-05-12T13:26:46.082Z,37.67
2018-05-12T13:29:14.371Z,37.46
2018-05-12T13:31:42.670Z,37.74
2018-05-12T13:34:11.183Z,37.18
2018-05-12T13:36:39.454Z,37.46
2018-05-12T13:39:07.748Z,37.21
2018-05-12T13:41:36.170Z,36.82
2018-05-12T13:44:04.465Z,36.11
2018-05-12T13:46:32.759Z,35.76
2018-05-12T13:49:01.103Z,35.68
2018-05-12T13:51:29.370Z,34.96
2018-05-12T13:53:57.702Z,35.11
2018-05-12T13:56:25.978Z,34.63
2018-05-12T13:58:54.274Z,35.74
2018-05-12T14:01:22.614Z,36.03
2018-05-12T14:03:50.874Z,35.90
2018-05-12T14:06:19.149Z,34.99
2018-05-12T14:08:47.538Z,35.09
2018-05-12T14:11:15.830Z,35.18
2018-05-12T14:13:44.199Z,34.50
2018-05-12T14:16:12.374Z,32.87
2018-05-12T14:18:40.993Z,33.45
2018-05-12T14:21:09.292Z,34.32
2018-05-12T14:23:37.608Z,34.89
2018-05-12T14:26:06.107Z,35.10
2018-05-12T14:28:34.388Z,35.52
2018-05-12T14:31:02.748Z,34.89
2018-05-12T14:33:31.186Z,34.51
2018-05-12T14:35:59.437Z,33.64
2018-05-12T14:38:27.711Z,33.36
2018-05-12T14:40:56.098Z,33.48
2018-05-12T14:43:24.434Z,33.42
2018-05-12T14:45:52.790Z,33.27
2018-05-12T14:48:21.050Z,33.46
2018-05-12T14:50:49.346Z,33.41
2018-05-12T14:53:17.606Z,33.32
2018-05-12T14:55:45.911Z,33.38
2018-05-12T14:58:14.198Z,33.58
2018-05-12T15:00:42.491Z,33.77
2018-05-12T15:03:10.750Z,32.93
2018-05-12T15:05:39.026Z,31.70
2018-05-12T15:08:07.343Z,32.26
2018-05-12T15:10:35.633Z,32.87
2018-05-12T15:13:04.276Z,33.08
2018-05-12T15:15:32.555Z,32.66
2018-05-12T15:18:00.889Z,32.99
2018-05-12T15:20:29.243Z,33.64
2018-05-12T15:22:57.513Z,33.64
2018-05-12T15:25:25.966Z,33.71
2018-05-12T15:27:54.294Z,33.21
2018-05-12T15:30:22.590Z,33.37
2018-05-12T15:32:50.859Z,32.57
2018-05-12T15:35:19.109Z,32.35
2018-05-12T15:37:47.946Z,32.97
2018-05-12T15:40:16.248Z,33.23
2018-05-12T15:42:44.531Z,32.43
2018-05-12T15:45:12.812Z,33.05
2018-05-12T15:47:41.113Z,33.74
2018-05-12T15:50:09.379Z,34.28
2018-05-12T15:52:37.693Z,35.21
2018-05-12T15:55:05.979Z,35.33
2018-05-12T15:57:34.270Z,35.57
2018-05-12T16:00:02.558Z,36.00
2018-05-12T16:02:31.750Z,36.18
2018-05-12T16:05:00.041Z,36.21
2018-05-12T16:07:28.334Z,36.35
2018-05-12T16:09:56.608Z,36.38
2018-05-12T16:12:24.892Z,36.80
2018-05-12T16:14:53.162Z,36.55
2018-05-12T16:17:21.474Z,36.68
2018-05-12T16:19:49.756Z,36.38
2018-05-12T16:22:18.019Z,35.46
2018-05-12T16:24:46.374Z,35.67
2018-05-12T16:27:14.654Z,35.20
2018-05-12T16:29:42.963Z,35.36
2018-05-12T16:32:11.209Z,34.87
2018-05-12T16:34:39.513Z,34.35
2018-05-12T16:37:07.969Z,34.32
2018-05-12T16:39:36.270Z,34.44
2018-05-12T16:42:05.550Z,35.02
2018-05-12T16:44:33.911Z,35.05
2018-05-12T16:47:02.419Z,35.60
2018-05-12T16:49:30.715Z,35.37
2018-05-12T16:51:58.978Z,35.92
2018-05-12T16:54:27.269Z,36.02
2018-05-12T16:56:55.561Z,36.11
2018-05-12T16:59:23.878Z,36.32
2018-05-12T17:01:52.156Z,36.54
2018-05-12T17:04:20.434Z,36.87
2018-05-12T17:06:48.695Z,37.18
2018-05-12T17:09:17.012Z,37.47
2018-05-12T17:11:45.290Z,37.55
2018-05-12T17:14:13.620Z,37.85
2018-05-12T17:16:41.905Z,37.93
2018-05-12T17:19:10.154Z,38.14
2018-05-12T17:21:38.456Z,38.33
2018-05-12T17:24:06.719Z,38.56
2018-05-12T17:26:35.726Z,38.83
2018-05-12T17:29:04.001Z,38.84
2018-05-12T17:31:32.300Z,38.66
2018-05-12T17:34:00.633Z,38.74
2018-05-12T17:36:28.932Z,38.77
2018-05-12T17:38:57.231Z,39.00
2018-05-12T17:41:25.536Z,39.10
2018-05-12T17:43:54.287Z,39.15
2018-05-12T17:46:22.801Z,39.14
2018-05-12T17:48:51.123Z,39.31
2018-05-12T17:51:19.453Z,39.58
2018-05-12T17:53:47.743Z,39.50
2018-05-12T17:56:16.032Z,39.81
2018-05-12T17:58:44.424Z,39.75
2018-05-12T18:01:12.768Z,39.99
2018-05-12T18:03:41.022Z,40.14
2018-05-12T18:06:09.331Z,40.12
2018-05-12T18:08:37.651Z,40.17
2018-05-12T18:11:05.930Z,40.59
2018-05-12T18:13:34.268Z,40.83
2018-05-12T18:16:02.532Z,41.44
2018-05-12T18:18:30.818Z,41.82
2018-05-12T18:20:59.173Z,42.21
2018-05-12T18:23:27.448Z,42.56
2018-05-12T18:25:55.739Z,42.95
2018-05-12T18:28:24.061Z,43.06
2018-05-12T18:30:52.331Z,43.24
2018-05-12T18:33:20.627Z,43.43
2018-05-12T18:35:49.055Z,43.48
2018-05-12T18:38:17.330Z,43.63
2018-05-12T18:40:45.603Z,43.54
2018-05-12T18:43:13.888Z,43.69
2018-05-12T18:45:42.155Z,44.09
2018-05-12T18:48:10.450Z,44.38
2018-05-12T18:50:38.797Z,44.45
2018-05-12T18:53:07.027Z,44.56
2018-05-12T18:55:35.387Z,44.63
2018-05-12T18:58:03.702Z,44.69
2018-05-12T19:00:31.994Z,45.00
2018-05-12T19:03:00.283Z,45.35
2018-05-12T19:05:28.649Z,45.88
2018-05-12T19:07:56.896Z,46.25
2018-05-12T19:10:25.313Z,46.18
2018-05-12T19:12:53.575Z,46.16
2018-05-12T19:15:21.875Z,46.50
2018-05-12T19:17:50.148Z,46.85
2018-05-12T19:20:18.472Z,47.23
2018-05-12T19:22:46.830Z,47.36
2018-05-12T19:25:15.139Z,47.38
2018-05-12T19:27:43.433Z,47.58
2018-05-12T19:30:11.736Z,47.80
2018-05-12T19:32:40.028Z,47.92
2018-05-12T19:35:09.342Z,47.92
2018-05-12T19:37:37.619Z,48.09
2018-05-12T19:40:05.955Z,48.27
2018-05-12T19:42:34.351Z,48.39
2018-05-12T19:45:02.622Z,48.79
2018-05-12T19:47:30.919Z,49.23
2018-05-12T19:49:59.372Z,49.29
2018-05-12T19:52:28.845Z,49.57
2018-05-12T19:54:57.233Z,49.74
2018-05-12T19:57:26.403Z,49.99
2018-05-12T19:59:54.705Z,50.21
2018-05-12T20:02:23.015Z,50.34
2018-05-12T20:04:51.327Z,50.55
2018-05-12T20:07:19.712Z,50.70
2018-05-12T20:09:48.029Z,51.13
2018-05-12T20:12:22.225Z,50.96
2018-05-12T20:14:50.510Z,51.59
2018-05-12T20:17:18.821Z,51.76
2018-05-12T20:19:47.136Z,51.93
2018-05-12T20:25:25.354Z,53.09
2018-05-12T20:27:53.696Z,53.13
2018-05-12T20:30:22.051Z,53.19
2018-05-12T20:32:51.377Z,53.33
2018-05-12T20:35:19.630Z,53.58
2018-05-12T20:37:47.933Z,49.99
2018-05-12T20:40:16.237Z,49.67
2018-05-12T20:42:44.542Z,50.32
2018-05-12T20:45:12.847Z,50.81
2018-05-12T20:47:41.160Z,50.60
2018-05-12T20:50:09.436Z,50.68
2018-05-12T20:52:39.585Z,50.41
2018-05-12T20:55:08.080Z,50.67
2018-05-12T20:57:36.377Z,50.74
2018-05-12T21:00:04.722Z,50.82
2018-05-12T21:02:33.069Z,50.95
2018-05-12T21:05:01.370Z,51.18
2018-05-12T21:07:29.637Z,51.23
2018-05-12T21:09:57.972Z,51.46
2018-05-12T21:12:26.347Z,51.47
2018-05-12T21:15:02.037Z,51.40
2018-05-12T21:17:30.346Z,51.39
2018-05-12T21:19:58.839Z,51.48
2018-05-12T21:22:30.299Z,52.00
2018-05-12T21:24:59.631Z,53.16
2018-05-12T21:27:28.255Z,54.05
2018-05-12T21:29:56.586Z,55.42
2018-05-12T21:32:25.008Z,55.72
2018-05-12T21:34:53.378Z,56.32
2018-05-12T21:37:21.751Z,57.44
2018-05-12T21:39:50.075Z,57.89
2018-05-12T21:42:18.363Z,57.28
2018-05-12T21:44:46.686Z,57.05
2018-05-12T21:47:14.992Z,56.91
2018-05-12T21:49:43.362Z,56.97
2018-05-12T21:52:11.658Z,57.82
2018-05-12T21:54:39.987Z,58.04
2018-05-12T21:57:08.296Z,58.59
2018-05-12T21:59:36.540Z,58.89
2018-05-12T22:02:05.213Z,58.83
2018-05-12T22:04:33.513Z,59.68
2018-05-12T22:07:01.820Z,59.50
2018-05-12T22:09:30.091Z,58.83
2018-05-12T22:11:58.398Z,54.54
2018-05-12T22:14:26.678Z,53.30
2018-05-12T22:16:54.976Z,52.42
2018-05-12T22:19:23.246Z,52.00
2018-05-12T22:21:51.535Z,51.70
2018-05-12T22:24:19.879Z,50.00
2018-05-12T22:26:48.125Z,48.51
2018-05-12T22:29:16.475Z,50.00
2018-05-12T22:31:44.749Z,48.86
2018-05-12T22:34:13.031Z,50.35
2018-05-12T22:36:41.308Z,52.42
2018-05-12T22:39:09.589Z,53.24
2018-05-12T22:41:37.844Z,54.17
2018-05-12T22:44:06.125Z,55.70
2018-05-12T22:46:34.399Z,54.01
2018-05-12T22:49:02.824Z,54.65
2018-05-12T22:51:31.186Z,56.00
2018-05-12T22:53:59.514Z,55.95
2018-05-12T22:56:27.770Z,56.69
2018-05-12T22:58:56.089Z,57.23
2018-05-12T23:01:24.378Z,56.37
2018-05-12T23:03:52.714Z,56.99
2018-05-12T23:06:20.981Z,56.67
2018-05-12T23:08:49.283Z,59.96
2018-05-12T23:11:18.345Z,59.63
2018-05-12T23:13:46.717Z,59.53
2018-05-12T23:16:15.014Z,59.47
2018-05-12T23:18:44.330Z,57.00
2018-05-12T23:21:12.632Z,56.30
2018-05-12T23:23:40.926Z,55.22
2018-05-12T23:26:09.239Z,55.74
2018-05-12T23:28:37.524Z,57.93
2018-05-12T23:31:05.825Z,58.91
2018-05-12T23:33:34.100Z,58.85
2018-05-12T23:36:02.443Z,59.09
2018-05-12T23:38:30.687Z,59.98
2018-05-12T23:40:58.975Z,60.51
2018-05-12T23:43:27.236Z,60.51
2018-05-12T23:45:55.529Z,60.76
2018-05-12T23:48:23.801Z,61.18
2018-05-12T23:50:52.082Z,61.67
2018-05-12T23:53:20.360Z,61.80
2018-05-12T23:55:48.684Z,63.39
2018-05-12T23:58:17.042Z,63.35
